Time;durP1;ratioP1;P1;durP2;ratioP2;P2;SDS_P1;SDS_P2;PMS_P1;PMS_P2;Temp;Humidity;BMP_temperature;BMP_pressure;BME280_temperature;BME280_humidity;BME280_pressure;Samples;Min_cycle;Max_cycle;Signal;HPM_P1;HPM_P2
2022/10/13 00:01:58;;;;;;;70.95;44.75;;;;;;;24.17;76.09;98687.16;4858836;29;20063;-69
2022/10/13 00:04:34;;;;;;;79.95;42.42;;;;;;;24.18;75.94;98677.81;4877125;29;20063;-69
2022/10/13 00:07:23;;;;;;;77.40;44.97;;;;;;;24.20;75.77;98687.34;4854546;29;20572;-68
2022/10/13 00:10:05;;;;;;;70.93;43.25;;;;;;;24.19;75.89;98684.91;4836228;29;20164;-69
2022/10/13 00:13:01;;;;;;;71.55;43.20;;;;;;;24.21;75.55;98688.19;4836102;29;20149;-69
2022/10/13 00:15:41;;;;;;;72.53;44.88;;;;;;;24.15;75.47;98684.72;4836038;29;20065;-68
2022/10/13 00:18:39;;;;;;;74.05;45.10;;;;;;;24.13;75.88;98692.44;4835789;29;20081;-69
2022/10/13 00:21:18;;;;;;;80.40;44.88;;;;;;;24.12;76.22;98695.50;4835662;29;20054;-68
2022/10/13 00:24:16;;;;;;;73.55;46.03;;;;;;;24.10;75.80;98698.53;4836087;29;20065;-69
2022/10/13 00:26:52;;;;;;;80.65;47.55;;;;;;;24.04;75.41;98700.56;4835307;29;20143;-68
2022/10/13 00:29:48;;;;;;;83.47;47.83;;;;;;;24.01;76.05;98705.81;4835760;29;20058;-69
2022/10/13 00:32:24;;;;;;;80.80;47.85;;;;;;;24.08;75.44;98708.19;4865470;29;20276;-69
2022/10/13 00:35:18;;;;;;;83.50;48.85;;;;;;;24.09;75.93;98712.53;4872274;29;20084;-68
2022/10/13 00:37:54;;;;;;;90.90;51.70;;;;;;;24.03;75.49;98715.38;4872617;29;20189;-68
2022/10/13 00:40:55;;;;;;;88.53;51.80;;;;;;;24.22;75.12;98711.72;4872278;29;20084;-68
2022/10/13 00:43:58;;;;;;;96.85;54.33;;;;;;;24.32;74.26;98711.53;4872688;29;20280;-69
2022/10/13 00:46:53;;;;;;;85.90;53.67;;;;;;;24.34;74.23;98711.22;4819115;29;20551;-69
2022/10/13 00:49:30;;;;;;;101.35;56.75;;;;;;;24.33;73.96;98713.16;4835863;29;20058;-69
2022/10/13 00:52:27;;;;;;;96.97;55.67;;;;;;;24.41;73.37;98715.19;4848672;29;20136;-69
2022/10/13 00:55:05;;;;;;;103.90;57.72;;;;;;;24.41;73.33;98719.88;4835556;29;20085;-70
2022/10/13 00:58:02;;;;;;;94.05;56.35;;;;;;;24.44;73.26;98716.53;4839661;29;20045;-70
2022/10/13 01:00:40;;;;;;;98.88;55.03;;;;;;;24.46;73.48;98718.94;4854031;29;20136;-69
2022/10/13 01:03:36;;;;;;;90.60;55.05;;;;;;;24.41;73.28;98720.66;4853578;29;20130;-68
2022/10/13 01:06:13;;;;;;;97.35;55.17;;;;;;;24.50;73.20;98726.25;4853388;29;20057;-69
2022/10/13 01:09:09;;;;;;;102.22;55.30;;;;;;;24.69;71.90;98730.88;4869752;29;20048;-69
2022/10/13 01:12:12;;;;;;;93.43;54.72;;;;;;;24.62;72.27;98728.53;4853356;29;20706;-69
2022/10/13 01:15:20;;;;;;;93.45;55.53;;;;;;;24.70;71.63;98733.28;4853968;29;20152;-69
2022/10/13 01:18:33;;;;;;;93.35;57.55;;;;;;;24.80;70.74;98738.56;4835972;29;20053;-70
2022/10/13 01:21:44;;;;;;;101.60;57.97;;;;;;;24.76;71.55;98748.53;4837874;29;20045;-71
2022/10/13 01:24:44;;;;;;;97.35;58.28;;;;;;;24.83;70.84;98742.63;4853383;29;20064;-69
2022/10/13 01:27:51;;;;;;;92.97;56.83;;;;;;;24.90;70.74;98747.72;4870491;29;20418;-70
2022/10/13 01:31:07;;;;;;;99.43;56.75;;;;;;;24.78;71.26;98759.19;4872420;29;20049;-69
2022/10/13 01:34:23;;;;;;;94.53;54.28;;;;;;;24.91;70.60;98757.56;4872818;29;20100;-69
2022/10/13 01:37:22;;;;;;;91.35;54.53;;;;;;;24.96;70.30;98752.75;4871831;29;20121;-71
2022/10/13 01:40:32;;;;;;;93.75;53.92;;;;;;;24.96;70.28;98771.19;4871592;29;20064;-69
2022/10/13 01:43:30;;;;;;;87.07;53.38;;;;;;;25.15;70.00;98769.09;4870632;29;20057;-69
2022/10/13 01:46:30;;;;;;;98.47;56.03;;;;;;;25.07;70.33;98771.75;4857470;29;20128;-70
2022/10/13 01:49:17;;;;;;;87.22;52.67;;;;;;;25.02;70.45;98775.44;4871844;29;20148;-70
2022/10/13 01:52:12;;;;;;;91.80;56.45;;;;;;;25.00;71.21;98774.94;4872102;29;20065;-69
2022/10/13 01:54:54;;;;;;;93.88;55.17;;;;;;;25.18;71.10;98786.88;4871843;29;20053;-70
2022/10/13 01:57:46;;;;;;;96.10;56.53;;;;;;;25.24;70.70;98791.19;4857147;29;20140;-69
2022/10/13 02:00:45;;;;;;;100.78;59.22;;;;;;;25.20;70.71;98790.97;4872060;29;20113;-69
2022/10/13 02:03:42;;;;;;;96.05;56.80;;;;;;;25.32;70.53;98803.38;4871586;29;20109;-70
2022/10/13 02:06:49;;;;;;;99.30;57.08;;;;;;;25.29;70.65;98803.97;4872930;29;20044;-70
2022/10/13 02:09:38;;;;;;;95.88;58.97;;;;;;;25.39;70.76;98817.47;4876225;29;20651;-70
2022/10/13 02:12:42;;;;;;;100.57;59.55;;;;;;;25.50;70.67;98813.38;4874681;29;20053;-69
2022/10/13 02:15:31;;;;;;;98.45;59.88;;;;;;;25.62;70.41;98820.25;4890817;29;20048;-69
2022/10/13 02:18:24;;;;;;;107.88;60.70;;;;;;;25.70;69.89;98820.34;4878885;29;20389;-70
2022/10/13 02:21:06;;;;;;;102.07;61.65;;;;;;;25.75;69.79;98816.66;4894012;29;20677;-69
2022/10/13 02:23:57;;;;;;;110.72;62.40;;;;;;;25.82;69.57;98825.28;4893381;29;20664;-70
2022/10/13 02:26:41;;;;;;;117.43;66.18;;;;;;;25.82;68.67;98827.22;4893267;29;20056;-70
2022/10/13 02:29:31;;;;;;;115.95;66.45;;;;;;;25.79;68.32;98826.72;4893152;29;20116;-70
2022/10/13 02:32:13;;;;;;;109.10;65.85;;;;;;;25.68;68.04;98833.59;4893286;29;20135;-73
2022/10/13 02:35:02;;;;;;;98.22;62.08;;;;;;;26.10;67.68;98833.41;4893610;29;20048;-69
2022/10/13 02:37:44;;;;;;;102.63;61.30;;;;;;;26.24;67.96;98838.84;4893356;29;20135;-69
2022/10/13 02:40:33;;;;;;;93.65;61.33;;;;;;;26.46;66.86;98843.50;4879277;29;20525;-70
2022/10/13 02:43:15;;;;;;;99.78;64.95;;;;;;;26.15;66.95;98841.53;4874156;29;20051;-70
2022/10/13 02:46:04;;;;;;;107.95;66.22;;;;;;;26.24;67.03;98847.91;4874798;29;20153;-70
2022/10/13 02:48:47;;;;;;;105.22;61.75;;;;;;;26.25;66.43;98849.53;4859090;29;20060;-71
2022/10/13 02:51:36;;;;;;;95.68;60.83;;;;;;;26.56;66.07;98860.56;4874246;29;20057;-69
2022/10/13 02:54:20;;;;;;;95.90;61.95;;;;;;;26.63;65.93;98862.88;4887300;29;20500;-69
2022/10/13 02:57:09;;;;;;;106.35;60.35;;;;;;;26.59;65.89;98861.03;4876232;29;20048;-71
2022/10/13 02:59:52;;;;;;;94.90;59.42;;;;;;;26.78;65.34;98874.59;4893185;29;20110;-70
2022/10/13 03:02:41;;;;;;;91.47;57.38;;;;;;;27.02;65.52;98866.75;4886062;29;20728;-70
2022/10/13 03:05:23;;;;;;;87.03;59.63;;;;;;;26.93;65.08;98877.75;4874031;29;20476;-71
2022/10/13 03:08:12;;;;;;;97.15;59.33;;;;;;;26.98;65.13;98873.22;4877453;29;20132;-71
2022/10/13 03:10:54;;;;;;;95.43;56.58;;;;;;;27.19;65.06;98877.03;4874365;29;20049;-71
2022/10/13 03:13:43;;;;;;;94.18;56.17;;;;;;;27.35;63.41;98885.66;4874041;29;20597;-70
2022/10/13 03:16:25;;;;;;;91.57;54.42;;;;;;;27.24;63.63;98876.06;4874053;29;20052;-70
2022/10/13 03:19:16;;;;;;;78.65;52.88;;;;;;;27.40;62.86;98877.25;4872654;29;20056;-73
2022/10/13 03:21:58;;;;;;;96.10;53.67;;;;;;;27.42;62.99;98888.78;4874137;29;20045;-70
2022/10/13 03:24:48;;;;;;;82.18;53.35;;;;;;;27.56;62.10;98887.81;4873669;29;20088;-69
2022/10/13 03:27:30;;;;;;;85.50;53.20;;;;;;;27.44;61.95;98896.69;4873571;29;20120;-71
2022/10/13 03:30:19;;;;;;;76.80;47.22;;;;;;;28.00;60.90;98889.47;4873124;29;20520;-69
2022/10/13 03:33:01;;;;;;;72.30;46.15;;;;;;;27.62;61.39;98897.56;4873703;29;20501;-70
2022/10/13 03:35:50;;;;;;;68.38;39.15;;;;;;;27.35;58.61;98899.44;4872076;29;20048;-69
2022/10/13 03:38:33;;;;;;;61.67;36.63;;;;;;;27.48;59.28;98908.72;4873443;29;20056;-70
2022/10/13 03:41:24;;;;;;;59.95;33.85;;;;;;;27.64;57.77;98900.78;4873361;29;20113;-71
2022/10/13 03:44:06;;;;;;;51.80;32.38;;;;;;;27.96;58.70;98912.53;4873522;29;20056;-69
2022/10/13 03:46:55;;;;;;;52.95;30.70;;;;;;;27.68;58.40;98907.28;4873345;29;20053;-70
2022/10/13 03:49:37;;;;;;;46.55;28.15;;;;;;;27.99;56.55;98911.88;4857863;29;20165;-70
2022/10/13 03:52:26;;;;;;;53.22;28.60;;;;;;;28.03;56.21;98907.31;4871733;29;20069;-69
2022/10/13 03:55:08;;;;;;;51.92;27.95;;;;;;;28.31;57.04;98910.53;4873078;29;20075;-69
2022/10/13 03:57:57;;;;;;;47.08;27.42;;;;;;;28.68;56.39;98914.56;4874121;29;20167;-70
2022/10/13 04:00:39;;;;;;;46.17;25.27;;;;;;;29.13;53.59;98921.56;4872482;29;20136;-70
2022/10/13 04:03:28;;;;;;;46.70;25.65;;;;;;;29.12;53.69;98919.09;4872851;29;20109;-72
2022/10/13 04:06:10;;;;;;;41.25;22.88;;;;;;;29.85;52.43;98918.88;4872611;29;20052;-71
2022/10/13 04:09:05;;;;;;;46.05;25.65;;;;;;;30.05;51.32;98923.56;4874267;29;20056;-69
2022/10/13 04:11:54;;;;;;;45.13;24.55;;;;;;;30.55;50.52;98929.34;4872107;29;20041;-70
2022/10/13 04:14:43;;;;;;;45.22;23.98;;;;;;;30.77;51.49;98928.13;4875394;29;20049;-71
2022/10/13 04:21:24;;;;;;;46.88;25.33;;;;;;;31.41;49.27;98930.28;4836559;29;20061;-64
2022/10/13 04:24:20;;;;;;;42.70;22.30;;;;;;;31.30;48.04;98933.84;4817479;29;20050;-65
2022/10/13 04:26:56;;;;;;;36.92;22.08;;;;;;;31.09;49.47;98936.72;4816833;29;20082;-65
2022/10/13 04:29:45;;;;;;;37.45;20.77;;;;;;;31.24;48.12;98941.56;4818905;29;20066;-65
2022/10/13 04:32:34;;;;;;;34.40;20.38;;;;;;;31.33;48.64;98933.97;4818714;29;20060;-64
2022/10/13 04:35:17;;;;;;;34.67;21.20;;;;;;;32.05;49.49;98938.19;4818708;29;20150;-65
2022/10/13 04:38:06;;;;;;;44.70;21.17;;;;;;;31.94;47.48;98938.63;4802126;29;20119;-64
2022/10/13 04:40:49;;;;;;;36.58;19.95;;;;;;;31.75;47.20;98949.56;4833004;29;20070;-65
2022/10/13 04:43:39;;;;;;;34.35;20.30;;;;;;;32.17;47.86;98941.69;4828946;29;20054;-65
2022/10/13 04:46:26;;;;;;;;;;;;;;;31.83;47.56;98950.56;4819573;29;20058;-65
2022/10/13 04:49:15;;;;;;;30.20;17.55;;;;;;;31.64;48.00;98954.75;4817311;29;19935;-67
2022/10/13 04:51:57;;;;;;;41.50;19.90;;;;;;;31.76;50.11;98954.75;4817924;29;20050;-66
2022/10/13 04:54:46;;;;;;;30.55;18.52;;;;;;;32.69;48.39;98944.72;4817063;29;20050;-67
2022/10/13 04:57:28;;;;;;;31.60;19.42;;;;;;;32.70;47.12;98947.16;4817147;29;20054;-67
2022/10/13 05:00:18;;;;;;;38.35;19.67;;;;;;;32.05;46.88;98952.88;4816759;29;20058;-66
2022/10/13 05:02:53;;;;;;;30.98;18.58;;;;;;;32.63;47.36;98960.06;4830455;29;20046;-67
2022/10/13 05:05:42;;;;;;;30.35;17.38;;;;;;;32.28;46.68;98957.88;4816532;29;20814;-68
2022/10/13 05:08:25;;;;;;;34.05;17.23;;;;;;;32.03;47.28;98946.84;4817477;29;20063;-68
2022/10/13 05:11:13;;;;;;;27.88;17.13;;;;;;;32.70;47.59;98954.69;4816257;29;20054;-66
2022/10/13 05:13:55;;;;;;;23.98;15.75;;;;;;;32.73;46.68;98952.03;4810711;29;20107;-67
2022/10/13 05:16:50;;;;;;;34.47;15.90;;;;;;;33.05;46.10;98952.03;4816143;29;20448;-73
2022/10/13 05:19:26;;;;;;;37.53;16.08;;;;;;;32.82;45.93;98949.06;4818466;29;20074;-71
2022/10/13 05:22:21;;;;;;;;;;;;;;;32.58;46.90;98947.25;4806212;29;20097;-70
2022/10/13 05:25:10;;;;;;;28.65;16.38;;;;;;;32.65;45.89;98949.41;4817220;29;19925;-69
2022/10/13 05:27:59;;;;;;;36.92;16.25;;;;;;;32.38;45.46;98955.38;4814700;29;20067;-69
2022/10/13 05:30:41;;;;;;;23.60;15.15;;;;;;;33.01;45.89;98951.13;4799422;29;20051;-70
2022/10/13 05:33:30;;;;;;;30.38;16.85;;;;;;;32.89;46.28;98946.47;4813694;29;20062;-70
2022/10/13 05:36:17;;;;;;;23.23;16.38;;;;;;;32.31;46.42;98951.59;4815068;29;20069;-70
2022/10/13 05:39:09;;;;;;;28.90;16.67;;;;;;;32.77;43.98;98952.09;4817789;29;20054;-70
2022/10/13 05:42:04;;;;;;;29.55;15.18;;;;;;;32.87;44.13;98946.03;4818307;29;20053;-70
2022/10/13 05:44:40;;;;;;;29.25;16.38;;;;;;;33.37;44.38;98943.69;4820147;29;20047;-71
2022/10/13 05:47:30;;;;;;;27.02;15.73;;;;;;;33.49;44.28;98949.13;4815177;29;20058;-69
2022/10/13 05:50:19;;;;;;;41.45;17.95;;;;;;;33.68;46.10;98940.06;4816131;29;20065;-70
2022/10/13 05:53:01;;;;;;;36.42;18.23;;;;;;;32.93;45.36;98941.81;4819482;29;20507;-70
2022/10/13 05:55:50;;;;;;;27.92;15.38;;;;;;;32.93;45.13;98944.59;4815742;29;20082;-70
2022/10/13 05:58:42;;;;;;;35.55;15.63;;;;;;;32.71;43.83;98937.69;4828912;29;20077;-69
2022/10/13 06:01:36;;;;;;;23.80;14.43;;;;;;;32.87;43.72;98940.47;4803109;29;20092;-70
2022/10/13 06:04:23;;;;;;;28.02;15.43;;;;;;;33.25;43.45;98941.84;4817094;29;20043;-70
2022/10/13 06:07:14;;;;;;;32.40;17.35;;;;;;;32.66;44.38;98940.72;4812711;29;20043;-73
2022/10/13 06:09:57;;;;;;;33.70;17.92;;;;;;;33.48;44.30;98935.63;4831321;29;20050;-73
2022/10/13 06:12:46;;;;;;;26.65;16.27;;;;;;;33.26;44.79;98934.28;4817495;29;20039;-73
2022/10/13 06:15:28;;;;;;;34.40;16.75;;;;;;;33.39;44.23;98932.22;4811758;29;20054;-74
2022/10/13 06:18:17;;;;;;;26.20;15.50;;;;;;;32.83;43.69;98930.41;4807406;29;20728;-73
2022/10/13 06:20:59;;;;;;;29.13;16.45;;;;;;;33.00;44.30;98926.47;4804107;29;20043;-75
2022/10/13 06:23:48;;;;;;;31.10;16.13;;;;;;;33.15;44.20;98917.34;4837894;29;20343;-74
2022/10/13 06:26:37;;;;;;;35.75;16.70;;;;;;;33.18;45.31;98913.03;4830263;29;20046;-74
2022/10/13 06:29:19;;;;;;;31.52;18.80;;;;;;;33.41;46.66;98913.19;4826395;29;20087;-75
2022/10/13 06:32:14;;;;;;;29.35;16.05;;;;;;;33.79;44.19;98911.69;4827317;29;20074;-74
2022/10/13 06:34:50;;;;;;;27.30;16.20;;;;;;;33.43;43.72;98899.72;4828123;29;20054;-71
2022/10/13 06:37:47;;;;;;;25.13;15.65;;;;;;;33.32;41.37;98900.25;4828067;29;20540;-74
2022/10/13 06:40:23;;;;;;;29.70;15.23;;;;;;;33.66;41.99;98903.44;4829742;29;20148;-72
2022/10/13 06:43:18;;;;;;;26.95;15.68;;;;;;;33.83;43.42;98904.19;4833011;29;20046;-73
2022/10/13 06:45:58;;;;;;;29.20;13.98;;;;;;;33.87;40.58;98897.53;4827199;29;20058;-72
2022/10/13 06:48:51;;;;;;;25.33;14.70;;;;;;;34.06;42.34;98882.78;4834413;29;20098;-72
2022/10/13 06:51:35;;;;;;;22.60;14.88;;;;;;;33.20;43.93;98891.25;4829164;29;20137;-74
2022/10/13 06:54:24;;;;;;;28.15;15.40;;;;;;;33.63;43.31;98887.50;4826393;29;20140;-74
2022/10/13 06:57:06;;;;;;;29.38;15.35;;;;;;;33.34;44.07;98878.47;4814408;29;20061;-74
2022/10/13 06:59:55;;;;;;;26.42;17.27;;;;;;;33.38;43.74;98874.94;4825247;29;20147;-74
2022/10/13 07:02:44;;;;;;;26.15;16.05;;;;;;;33.53;43.16;98874.94;4823901;29;20046;-72
2022/10/13 07:05:26;;;;;;;37.30;15.77;;;;;;;33.41;42.56;98871.44;4835349;29;20058;-73
2022/10/13 07:08:15;;;;;;;30.02;16.95;;;;;;;33.53;43.17;98858.22;4817140;29;20054;-72
2022/10/13 07:10:57;;;;;;;25.83;18.05;;;;;;;33.64;43.54;98854.88;4836537;29;20406;-72
2022/10/13 07:13:47;;;;;;;40.17;16.50;;;;;;;33.18;42.29;98854.63;4843118;29;20056;-73
2022/10/13 07:16:29;;;;;;;50.05;16.52;;;;;;;33.13;43.51;98850.16;4825511;29;20111;-73
2022/10/13 07:19:18;;;;;;;28.30;15.40;;;;;;;33.44;42.61;98851.22;4825564;29;20440;-72
2022/10/13 07:22:06;;;;;;;25.25;14.25;;;;;;;33.44;42.52;98848.44;4839901;29;20077;-73
2022/10/13 07:25:01;;;;;;;26.52;15.15;;;;;;;32.81;42.46;98841.00;4828239;29;20054;-72
2022/10/13 07:27:39;;;;;;;23.05;14.80;;;;;;;33.38;42.90;98836.00;4829460;29;20046;-74
2022/10/13 07:30:28;;;;;;;25.25;13.60;;;;;;;33.18;40.88;98833.19;4827022;29;20070;-72
2022/10/13 07:33:17;;;;;;;24.55;13.95;;;;;;;33.08;40.77;98828.16;4828864;29;20050;-73
2022/10/13 07:36:07;;;;;;;21.42;12.95;;;;;;;33.32;41.91;98821.56;4827230;29;20054;-72
2022/10/13 07:38:57;;;;;;;21.98;12.77;;;;;;;33.37;39.80;98826.84;4832807;29;20053;-73
2022/10/13 07:41:46;;;;;;;27.00;13.43;;;;;;;33.31;41.54;98811.63;4822420;29;20081;-73
2022/10/13 07:44:32;;;;;;;25.90;13.82;;;;;;;32.88;41.43;98814.19;4835952;29;20057;-73
2022/10/13 07:47:29;;;;;;;24.02;14.05;;;;;;;33.33;43.10;98812.88;4836152;29;20375;-73
2022/10/13 07:50:05;;;;;;;25.65;14.30;;;;;;;33.20;40.26;98802.25;4836301;29;20042;-73
2022/10/13 07:53:01;;;;;;;21.30;13.63;;;;;;;32.58;40.02;98788.88;4822983;29;20069;-74
2022/10/13 07:55:36;;;;;;;25.10;13.30;;;;;;;32.82;40.17;98796.19;4837052;29;20054;-73
2022/10/13 07:58:31;;;;;;;26.50;13.98;;;;;;;33.16;39.96;98782.69;4836744;29;20062;-73
2022/10/13 08:01:07;;;;;;;26.83;14.75;;;;;;;32.94;40.88;98790.53;4836045;29;20709;-73
2022/10/13 08:04:02;;;;;;;44.88;13.52;;;;;;;32.89;43.06;98788.03;4836471;29;20757;-74
2022/10/13 08:06:38;;;;;;;24.13;12.93;;;;;;;33.01;41.39;98775.97;4836373;29;20053;-74
2022/10/13 08:09:27;;;;;;;22.35;11.90;;;;;;;32.91;40.85;98782.91;4836131;29;20106;-73
2022/10/13 08:12:11;;;;;;;19.35;12.30;;;;;;;33.01;40.74;98775.16;4835989;29;20061;-73
2022/10/13 08:15:06;;;;;;;22.67;11.60;;;;;;;32.97;39.40;98772.31;4834559;29;20054;-73
2022/10/13 08:17:41;;;;;;;21.83;11.38;;;;;;;33.25;41.39;98766.59;4817724;29;20058;-73
2022/10/13 08:20:31;;;;;;;24.05;12.32;;;;;;;32.79;39.16;98760.78;4817650;29;20054;-71
2022/10/13 08:23:24;;;;;;;20.45;12.45;;;;;;;32.96;40.50;98763.16;4805340;29;20042;-73
2022/10/13 08:26:21;;;;;;;17.52;12.05;;;;;;;32.75;40.10;98759.88;4799506;29;20163;-72
2022/10/13 08:29:03;;;;;;;25.08;11.63;;;;;;;32.88;40.67;98758.59;4818049;29;20061;-74
2022/10/13 08:32:13;;;;;;;22.90;11.13;;;;;;;33.00;39.06;98756.88;4816513;29;20852;-73
2022/10/13 08:34:49;;;;;;;22.48;11.05;;;;;;;32.67;38.30;98747.78;4818097;29;20548;-73
2022/10/13 08:37:38;;;;;;;22.70;11.05;;;;;;;32.87;37.05;98745.88;4818062;29;20082;-71
2022/10/13 08:40:25;;;;;;;27.58;11.07;;;;;;;32.89;38.50;98732.44;4819973;29;20042;-72
2022/10/13 08:43:20;;;;;;;23.08;11.32;;;;;;;32.52;37.53;98724.41;4799062;29;20504;-72
2022/10/13 08:46:06;;;;;;;22.77;12.38;;;;;;;33.01;38.70;98723.16;4800493;29;20059;-73
2022/10/13 08:49:04;;;;;;;18.67;10.27;;;;;;;33.00;38.71;98721.56;4810404;29;20122;-74
2022/10/13 08:51:40;;;;;;;25.27;10.82;;;;;;;32.69;38.18;98716.88;4835948;29;20607;-74
2022/10/13 08:54:35;;;;;;;24.15;13.02;;;;;;;32.94;38.02;98709.91;4817485;29;20066;-74
2022/10/13 08:57:11;;;;;;;21.02;12.05;;;;;;;32.76;37.90;98723.41;4816348;29;20050;-74
2022/10/13 09:00:00;;;;;;;28.52;12.10;;;;;;;32.55;37.34;98712.56;4817814;29;20594;-73
2022/10/13 09:02:47;;;;;;;23.38;11.82;;;;;;;32.85;38.68;98720.44;4798927;29;20467;-74
2022/10/13 09:05:51;;;;;;;29.80;12.45;;;;;;;32.84;39.14;98715.22;4798841;29;20497;-74
2022/10/13 09:08:32;;;;;;;43.50;13.00;;;;;;;32.66;38.79;98712.84;4797041;29;20043;-75
2022/10/13 09:11:27;;;;;;;16.17;10.35;;;;;;;32.60;36.66;98702.34;4798983;29;20062;-74
2022/10/13 09:14:06;;;;;;;25.60;10.77;;;;;;;32.67;37.86;98696.97;4803989;29;20050;-72
2022/10/13 09:17:17;;;;;;;22.17;9.68;;;;;;;32.37;34.36;98695.47;4804247;29;20057;-73
2022/10/13 09:20:04;;;;;;;18.17;10.40;;;;;;;32.95;35.71;98691.25;4804719;29;20060;-74
2022/10/13 09:23:19;;;;;;;16.85;10.02;;;;;;;32.85;36.90;98687.06;4827416;29;20065;-74
2022/10/13 09:26:24;;;;;;;25.90;10.55;;;;;;;32.90;37.62;98685.97;4831269;29;20058;-74
2022/10/13 09:29:08;;;;;;;19.83;10.45;;;;;;;32.95;36.54;98689.25;4820956;29;20090;-74
2022/10/13 09:32:28;;;;;;;19.23;10.68;;;;;;;32.83;37.09;98681.06;4807304;29;20374;-74
2022/10/13 09:35:21;;;;;;;21.52;10.38;;;;;;;32.99;37.51;98681.00;4801834;29;20055;-74
2022/10/13 09:38:17;;;;;;;28.42;12.15;;;;;;;33.03;38.17;98686.66;4814739;29;20810;-75
2022/10/13 09:41:26;;;;;;;19.05;11.05;;;;;;;32.92;36.15;98676.13;4830536;29;20077;-73
2022/10/13 09:44:27;;;;;;;23.33;11.65;;;;;;;32.76;38.17;98684.47;4829468;29;20046;-74
2022/10/13 09:47:10;;;;;;;17.20;10.75;;;;;;;32.53;36.56;98680.75;4838334;29;20064;-73
2022/10/13 09:50:11;;;;;;;20.00;10.65;;;;;;;32.53;37.15;98676.00;4822495;29;20046;-75
2022/10/13 09:52:48;;;;;;;20.58;10.02;;;;;;;32.82;38.23;98675.88;4820199;29;20069;-73
2022/10/13 09:55:37;;;;;;;28.17;11.70;;;;;;;32.73;38.15;98673.28;4819784;29;20130;-76
2022/10/13 09:58:35;;;;;;;17.90;10.70;;;;;;;32.85;41.56;98669.59;4820290;29;20062;-77
2022/10/13 10:01:23;;;;;;;19.20;10.65;;;;;;;32.47;37.78;98669.13;4819914;29;20069;-77
2022/10/13 10:04:20;;;;;;;19.58;10.38;;;;;;;32.72;38.94;98666.94;4819473;29;20458;-76
2022/10/13 10:07:11;;;;;;;21.70;12.07;;;;;;;32.49;40.77;98664.00;4822188;29;20062;-77
2022/10/13 10:10:08;;;;;;;19.02;10.35;;;;;;;32.54;37.46;98665.69;4818910;29;20046;-76
2022/10/13 10:12:51;;;;;;;22.45;11.35;;;;;;;32.55;38.06;98665.31;4820161;29;20069;-76
2022/10/13 10:15:48;;;;;;;20.92;10.73;;;;;;;32.42;42.04;98657.47;4820105;29;20457;-76
2022/10/13 10:19:18;;;;;;;19.92;10.40;;;;;;;32.39;39.42;98664.56;4821122;29;20038;-75
2022/10/13 10:22:14;;;;;;;23.42;10.50;;;;;;;32.45;36.68;98668.69;4821173;29;20058;-76
2022/10/13 10:25:24;;;;;;;21.05;10.93;;;;;;;32.15;35.86;98669.16;4817244;29;20051;-75
2022/10/13 10:28:43;;;;;;;16.65;11.07;;;;;;;32.29;36.92;98667.88;4817582;29;20073;-75
2022/10/13 10:31:35;;;;;;;21.10;11.15;;;;;;;32.46;38.55;98661.94;4818554;29;20054;-75
2022/10/13 10:34:35;;;;;;;26.02;11.65;;;;;;;32.28;40.26;98657.97;4819410;29;20473;-75
2022/10/13 10:37:45;;;;;;;26.00;12.30;;;;;;;32.28;39.94;98657.97;4818650;29;20054;-75
2022/10/13 10:40:34;;;;;;;20.65;11.52;;;;;;;32.22;40.09;98664.94;4826673;29;20060;-75
2022/10/13 10:43:25;;;;;;;24.85;12.13;;;;;;;31.96;39.54;98666.25;4833820;29;20057;-75
2022/10/13 10:46:25;;;;;;;20.00;11.48;;;;;;;32.14;41.96;98664.78;4836810;29;20084;-75
2022/10/13 10:49:23;;;;;;;23.88;12.77;;;;;;;31.88;40.11;98662.50;4838104;29;20061;-75
2022/10/13 10:52:16;;;;;;;21.17;12.02;;;;;;;31.85;40.22;98652.09;4818356;29;20477;-74
2022/10/13 10:55:25;;;;;;;22.95;11.35;;;;;;;31.93;39.95;98658.63;4828197;29;20057;-74
2022/10/13 10:59:13;;;;;;;21.85;11.80;;;;;;;31.95;42.37;98659.13;4837004;29;20065;-73
2022/10/13 11:02:07;;;;;;;27.02;11.55;;;;;;;31.91;41.55;98666.53;4779984;29;20212;-74
2022/10/13 11:04:59;;;;;;;22.55;11.93;;;;;;;31.90;42.10;98660.16;4780638;29;20063;-75
2022/10/13 11:07:46;;;;;;;27.77;13.50;;;;;;;31.86;40.13;98664.03;4818726;29;20154;-75
2022/10/13 11:10:35;;;;;;;26.40;12.95;;;;;;;31.68;40.90;98663.56;4817973;29;20061;-74
2022/10/13 11:13:19;;;;;;;24.33;13.97;;;;;;;31.65;40.43;98658.72;4832257;29;20058;-75
2022/10/13 11:16:49;;;;;;;26.98;12.13;;;;;;;31.91;40.46;98660.97;4818515;29;20051;-73
2022/10/13 11:19:39;;;;;;;19.00;12.30;;;;;;;31.88;41.97;98656.16;4798149;29;20050;-74
2022/10/13 11:22:36;;;;;;;32.28;13.15;;;;;;;31.65;41.78;98658.72;4817806;29;20527;-74
2022/10/13 11:25:38;;;;;;;19.50;12.10;;;;;;;31.73;41.43;98661.31;4835083;29;20050;-75
2022/10/13 11:28:27;;;;;;;29.23;12.23;;;;;;;31.57;42.67;98666.84;4832088;29;20058;-74
2022/10/13 11:31:12;;;;;;;34.15;12.63;;;;;;;31.58;41.82;98654.59;4836536;29;20053;-74
2022/10/13 11:34:06;;;;;;;31.45;12.50;;;;;;;31.44;44.00;98661.72;4839628;29;20046;-75
2022/10/13 11:36:54;;;;;;;26.40;12.25;;;;;;;31.32;44.93;98663.38;4834614;29;20053;-75
2022/10/13 11:40:06;;;;;;;30.40;12.88;;;;;;;31.31;43.53;98664.53;4835334;29;20064;-74
2022/10/13 11:43:07;;;;;;;21.25;12.18;;;;;;;31.37;43.65;98653.97;4837201;29;20172;-74
2022/10/13 11:46:07;;;;;;;19.92;12.88;;;;;;;31.25;42.52;98660.41;4819375;29;20084;-74
2022/10/13 11:49:30;;;;;;;29.77;13.25;;;;;;;31.25;43.25;98657.63;4836594;29;20097;-74
2022/10/13 11:52:45;;;;;;;23.75;12.70;;;;;;;31.15;44.99;98658.13;4836271;29;20049;-74
2022/10/13 11:55:53;;;;;;;23.77;12.68;;;;;;;30.96;44.89;98658.78;4836358;29;20061;-74
2022/10/13 11:58:48;;;;;;;22.67;13.07;;;;;;;30.87;44.87;98661.66;4836504;29;20054;-75
2022/10/13 12:01:43;;;;;;;23.45;12.32;;;;;;;30.83;44.68;98657.97;4836618;29;20078;-75
2022/10/13 12:04:28;;;;;;;29.67;12.00;;;;;;;30.83;44.95;98653.22;4817373;29;20069;-75
2022/10/13 12:07:28;;;;;;;32.97;12.88;;;;;;;30.69;44.70;98657.53;4829442;29;20057;-75
2022/10/13 12:10:07;;;;;;;24.33;12.15;;;;;;;30.69;44.50;98657.53;4850613;29;20065;-75
2022/10/13 12:13:03;;;;;;;24.58;12.73;;;;;;;30.65;44.80;98654.69;4852580;29;20058;-75
2022/10/13 12:15:43;;;;;;;28.25;12.65;;;;;;;30.61;45.58;98656.50;4853613;29;20061;-74
2022/10/13 12:18:40;;;;;;;25.92;12.65;;;;;;;30.59;45.93;98656.88;4853683;29;20149;-75
2022/10/13 12:21:20;;;;;;;28.23;13.73;;;;;;;30.50;45.94;98656.19;4855530;29;20076;-75
2022/10/13 12:24:18;;;;;;;27.30;13.95;;;;;;;30.51;45.72;98659.75;4855402;29;20053;-76
2022/10/13 12:27:19;;;;;;;29.50;13.50;;;;;;;30.38;45.59;98654.25;4850026;29;20054;-71
2022/10/13 12:30:10;;;;;;;30.15;12.73;;;;;;;30.45;44.38;98648.13;4835177;29;20152;-73
2022/10/13 12:32:55;;;;;;;23.05;12.80;;;;;;;30.37;46.27;98651.81;4835827;29;20054;-75
2022/10/13 12:35:44;;;;;;;25.45;12.57;;;;;;;30.29;46.14;98653.53;4819669;29;20061;-75
2022/10/13 12:38:26;;;;;;;25.48;13.27;;;;;;;30.25;46.38;98658.16;4834527;29;20374;-75
2022/10/13 12:41:17;;;;;;;25.48;12.30;;;;;;;30.19;47.03;98659.50;4846573;29;20113;-75
2022/10/13 12:44:13;;;;;;;27.75;12.30;;;;;;;30.09;47.88;98657.22;4816856;29;20054;-75
2022/10/13 12:47:09;;;;;;;32.05;14.00;;;;;;;30.05;47.58;98663.44;4817040;29;20053;-75
2022/10/13 12:50:28;;;;;;;32.03;13.35;;;;;;;30.02;46.99;98664.13;4816260;29;20409;-74
2022/10/13 12:53:20;;;;;;;32.88;13.90;;;;;;;29.90;48.38;98661.34;4827250;29;20058;-74
2022/10/13 12:56:04;;;;;;;30.10;12.88;;;;;;;29.91;47.95;98651.91;4834709;29;20054;-76
2022/10/13 12:58:53;;;;;;;26.73;13.25;;;;;;;29.97;48.54;98666.31;4829890;29;20197;-76
2022/10/13 13:01:49;;;;;;;23.88;11.82;;;;;;;29.83;49.49;98669.41;4818583;29;20048;-76
2022/10/13 13:04:38;;;;;;;30.48;12.75;;;;;;;29.84;49.13;98669.06;4828032;29;20064;-76
2022/10/13 13:07:35;;;;;;;31.95;14.02;;;;;;;29.73;48.95;98670.69;4838406;29;20645;-76
2022/10/13 13:10:27;;;;;;;30.95;13.00;;;;;;;29.54;51.17;98673.09;4825243;29;20053;-76